Time;durP1;ratioP1;P1;durP2;ratioP2;P2;SDS_P1;SDS_P2;PMS_P1;PMS_P2;Temp;Humidity;BMP_temperature;BMP_pressure;BME280_temperature;BME280_humidity;BME280_pressure;Samples;Min_cycle;Max_cycle;Signal;HPM_P1;HPM_P2
2023/09/19 00:00:43;;;;;;;19.65;7.43;;;;;;;23.09;73.01;97606.72;4409546;32;20110;-76
2023/09/19 00:03:11;;;;;;;22.50;7.40;;;;;;;22.99;73.73;97597.28;4396234;32;20094;-76
2023/09/19 00:05:39;;;;;;;19.20;7.62;;;;;;;23.29;72.74;97609.97;4396333;32;20140;-76
2023/09/19 00:08:07;;;;;;;17.15;6.78;;;;;;;23.48;71.26;97608.06;4409757;32;20093;-76
2023/09/19 00:10:34;;;;;;;20.42;7.30;;;;;;;23.52;71.15;97612.06;4409957;32;20085;-76
2023/09/19 00:13:06;;;;;;;14.85;6.90;;;;;;;23.97;68.68;97617.03;4409875;32;20105;-76
2023/09/19 00:15:39;;;;;;;18.05;6.60;;;;;;;23.89;69.11;97612.56;4409763;32;20479;-76
2023/09/19 00:18:07;;;;;;;17.77;7.35;;;;;;;23.76;69.28;97606.91;4396346;32;20102;-76
2023/09/19 00:20:38;;;;;;;19.52;6.75;;;;;;;23.67;70.59;97611.31;4395920;32;20166;-76
2023/09/19 00:23:08;;;;;;;17.05;5.93;;;;;;;23.87;69.86;97608.44;4409688;32;20137;-76
2023/09/19 00:25:37;;;;;;;21.58;7.10;;;;;;;23.92;69.38;97604.31;4409670;32;20100;-75
2023/09/19 00:28:06;;;;;;;20.65;6.22;;;;;;;23.80;70.16;97612.69;4409506;32;20145;-75
2023/09/19 00:30:34;;;;;;;19.35;6.53;;;;;;;23.64;70.97;97610.81;4409659;32;20094;-76
2023/09/19 00:33:05;;;;;;;18.83;6.45;;;;;;;23.86;69.96;97612.88;4409719;32;20104;-76
2023/09/19 00:35:33;;;;;;;18.33;6.87;;;;;;;24.00;69.31;97616.72;4409193;32;20103;-76
2023/09/19 00:38:00;;;;;;;17.92;6.12;;;;;;;24.17;68.60;97607.87;4409754;32;20102;-75
2023/09/19 00:40:27;;;;;;;16.15;5.95;;;;;;;24.15;68.32;97612.47;4395950;32;20165;-75
2023/09/19 00:42:59;;;;;;;18.80;6.22;;;;;;;24.02;68.79;97600.72;4395544;32;20102;-76
2023/09/19 00:45:26;;;;;;;15.98;6.40;;;;;;;24.09;68.29;97607.03;4409532;32;20108;-76
2023/09/19 00:47:53;;;;;;;19.98;6.12;;;;;;;24.17;67.73;97604.41;4409601;32;20115;-76
2023/09/19 00:50:22;;;;;;;20.05;6.28;;;;;;;24.30;67.27;97604.75;4409139;32;20112;-75
2023/09/19 00:52:56;;;;;;;19.25;6.65;;;;;;;24.22;67.28;97602.94;4409434;32;20169;-76
2023/09/19 00:55:24;;;;;;;18.05;6.28;;;;;;;24.29;67.11;97603.13;4409024;32;20120;-75
2023/09/19 00:57:52;;;;;;;25.95;7.07;;;;;;;24.16;67.33;97594.84;4409537;32;20094;-75
2023/09/19 01:00:20;;;;;;;15.77;6.45;;;;;;;24.26;67.24;97597.34;4409232;32;20099;-76
2023/09/19 01:02:48;;;;;;;20.80;7.10;;;;;;;24.06;67.66;97604.72;4408987;32;20542;-75
2023/09/19 01:05:16;;;;;;;20.73;6.43;;;;;;;24.01;68.20;97597.28;4409151;32;20431;-76
2023/09/19 01:07:45;;;;;;;19.17;6.97;;;;;;;23.81;69.12;97596.72;4409319;32;20157;-75
2023/09/19 01:10:16;;;;;;;16.98;6.80;;;;;;;23.87;69.13;97597.91;4408874;32;20121;-76
2023/09/19 01:13:10;;;;;;;18.67;6.20;;;;;;;23.73;69.69;97598.53;4395918;32;20094;-76
2023/09/19 01:15:58;;;;;;;15.95;6.80;;;;;;;23.79;69.53;97597.88;4411085;32;20504;-76
2023/09/19 01:18:37;;;;;;;;;;;;;;;23.90;69.25;97597.56;4406471;32;148681;-76
2023/09/19 01:21:48;;;;;;;18.52;6.35;;;;;;;24.07;68.15;97587.91;4397463;32;19994;-76
2023/09/19 01:24:56;;;;;;;22.35;6.15;;;;;;;23.98;68.09;97599.41;4376782;32;20812;-76
2023/09/19 01:28:02;;;;;;;19.27;6.47;;;;;;;23.93;68.82;97595.47;4410998;32;20414;-76
2023/09/19 01:30:33;;;;;;;21.33;7.10;;;;;;;23.79;69.73;97588.16;4407204;32;20141;-76
2023/09/19 01:33:00;;;;;;;17.55;6.57;;;;;;;23.96;68.73;97583.78;4385040;32;20178;-76
2023/09/19 01:35:27;;;;;;;17.05;6.68;;;;;;;23.66;70.13;97579.88;4397134;32;20093;-76
2023/09/19 01:37:54;;;;;;;19.70;7.05;;;;;;;23.78;69.35;97581.25;4410657;32;20098;-76
2023/09/19 01:40:22;;;;;;;20.02;6.35;;;;;;;23.94;68.89;97578.66;4410869;32;20114;-76
2023/09/19 01:42:56;;;;;;;18.50;7.30;;;;;;;24.00;68.21;97568.44;4410992;32;20429;-76
2023/09/19 01:45:54;;;;;;;20.30;6.95;;;;;;;24.24;67.19;97577.25;4410549;32;20148;-76
2023/09/19 01:48:28;;;;;;;17.05;7.43;;;;;;;23.99;68.22;97588.72;4397403;32;20437;-76
2023/09/19 01:50:59;;;;;;;20.50;7.32;;;;;;;23.64;69.84;97593.22;4410942;32;20149;-76
2023/09/19 01:53:30;;;;;;;18.20;7.05;;;;;;;23.66;70.01;97587.78;4396945;32;20114;-76
2023/09/19 01:55:58;;;;;;;16.40;6.68;;;;;;;23.69;70.06;97584.00;4397179;32;20094;-76
2023/09/19 01:58:34;;;;;;;20.37;6.95;;;;;;;24.08;68.63;97584.28;4397126;32;20562;-76
2023/09/19 02:01:03;;;;;;;19.50;6.97;;;;;;;24.37;67.06;97589.97;4410734;32;20122;-76
2023/09/19 02:03:31;;;;;;;16.17;7.37;;;;;;;23.94;68.41;97593.66;4397240;32;20184;-76
2023/09/19 02:05:58;;;;;;;19.25;7.57;;;;;;;23.55;69.90;97594.13;4410319;32;20094;-76
2023/09/19 02:08:26;;;;;;;21.17;7.62;;;;;;;23.54;69.91;97589.84;4410905;32;20104;-76
2023/09/19 02:10:53;;;;;;;20.62;7.37;;;;;;;23.15;71.81;97581.56;4410740;32;20106;-75
2023/09/19 02:13:21;;;;;;;20.42;8.02;;;;;;;22.45;76.13;97578.09;4410384;32;20468;-75
2023/09/19 02:15:48;;;;;;;19.73;7.75;;;;;;;22.94;73.60;97586.38;4410491;32;20124;-76
2023/09/19 02:18:15;;;;;;;17.33;7.87;;;;;;;22.74;74.77;97583.88;4397145;32;20074;-76
2023/09/19 02:20:43;;;;;;;22.73;7.53;;;;;;;22.95;73.93;97578.31;4410201;32;20416;-76
2023/09/19 02:23:10;;;;;;;18.83;7.65;;;;;;;22.65;75.56;97576.94;4410466;32;20165;-75
2023/09/19 02:25:39;;;;;;;17.80;7.25;;;;;;;22.96;74.61;97581.78;4396859;32;20149;-76
2023/09/19 02:28:06;;;;;;;20.30;8.10;;;;;;;23.30;72.20;97587.94;4410421;32;20149;-76
2023/09/19 02:30:33;;;;;;;16.75;7.10;;;;;;;23.16;72.47;97585.84;4410563;32;20102;-75
2023/09/19 02:33:01;;;;;;;18.17;7.03;;;;;;;22.79;73.68;97591.34;4410684;32;20162;-75
2023/09/19 02:35:32;;;;;;;19.05;7.75;;;;;;;22.74;73.96;97594.41;4410118;32;20098;-76
2023/09/19 02:37:59;;;;;;;20.10;7.82;;;;;;;22.98;73.03;97599.06;4410610;32;20100;-76
2023/09/19 02:40:27;;;;;;;19.23;7.80;;;;;;;23.04;72.73;97605.50;4410186;32;20146;-75
2023/09/19 02:42:55;;;;;;;23.02;7.12;;;;;;;23.16;72.28;97606.09;4410534;32;20085;-75
2023/09/19 02:45:23;;;;;;;18.15;8.10;;;;;;;23.05;72.96;97605.34;4410391;32;20108;-75
2023/09/19 02:47:50;;;;;;;17.48;6.75;;;;;;;22.98;73.45;97604.34;4410289;32;20140;-75
2023/09/19 02:50:17;;;;;;;19.08;7.82;;;;;;;23.09;72.96;97609.34;4410519;32;20093;-75
2023/09/19 02:52:48;;;;;;;18.58;7.22;;;;;;;22.89;74.00;97609.69;4396748;32;20098;-75
2023/09/19 02:55:21;;;;;;;17.17;7.43;;;;;;;22.86;74.22;97599.47;4410127;32;20125;-75
2023/09/19 02:57:50;;;;;;;17.33;7.00;;;;;;;22.62;75.30;97598.25;4397393;32;20074;-75
2023/09/19 03:00:21;;;;;;;21.45;7.35;;;;;;;22.83;73.85;97600.56;4410416;32;20139;-75
2023/09/19 03:02:50;;;;;;;20.55;7.35;;;;;;;22.35;76.13;97606.25;4410176;32;20108;-75
2023/09/19 03:05:17;;;;;;;19.87;7.87;;;;;;;22.11;77.32;97618.16;4410287;32;20113;-75
2023/09/19 03:07:46;;;;;;;16.42;7.05;;;;;;;21.86;79.46;97622.28;4410465;32;20086;-75
2023/09/19 03:10:15;;;;;;;22.10;7.07;;;;;;;22.06;78.05;97620.41;4409956;32;20241;-75
2023/09/19 03:12:43;;;;;;;22.02;7.32;;;;;;;22.03;78.22;97625.94;4410363;32;20136;-75
2023/09/19 03:15:10;;;;;;;18.48;7.30;;;;;;;22.06;77.07;97627.44;4410103;32;20087;-75
2023/09/19 03:17:37;;;;;;;21.90;7.22;;;;;;;22.20;76.32;97632.19;4409994;32;20086;-75
2023/09/19 03:20:08;;;;;;;22.98;6.37;;;;;;;22.15;76.27;97644.97;4410296;32;20149;-76
2023/09/19 03:22:35;;;;;;;14.15;4.18;;;;;;;21.65;78.34;97655.81;4409635;32;20136;-75
2023/09/19 03:25:03;;;;;;;7.80;2.40;;;;;;;20.94;82.02;97671.13;4410196;32;20086;-75
2023/09/19 03:27:30;;;;;;;5.70;1.90;;;;;;;20.35;80.43;97661.59;4410347;32;20090;-75
2023/09/19 03:29:58;;;;;;;4.90;1.50;;;;;;;20.22;81.90;97680.19;4409974;32;20090;-75
2023/09/19 03:32:24;;;;;;;6.68;1.52;;;;;;;19.81;84.19;97662.84;4410175;32;20162;-75
2023/09/19 03:34:52;;;;;;;7.47;1.55;;;;;;;19.95;84.38;97662.47;4410108;32;20106;-75
2023/09/19 03:37:19;;;;;;;4.50;1.40;;;;;;;20.03;83.99;97675.72;4409456;32;20161;-75
2023/09/19 03:39:46;;;;;;;3.28;1.27;;;;;;;19.98;84.71;97677.88;4410188;32;20102;-75
2023/09/19 03:42:13;;;;;;;4.47;1.17;;;;;;;19.96;85.87;97673.75;4410164;32;20136;-75
2023/09/19 03:44:40;;;;;;;4.35;1.30;;;;;;;19.90;88.39;97668.09;4409856;32;20121;-75
2023/09/19 03:47:07;;;;;;;5.70;1.30;;;;;;;19.81;89.56;97676.75;4410240;32;20149;-75
2023/09/19 03:49:34;;;;;;;4.18;1.30;;;;;;;19.31;92.83;97667.94;4410093;32;20166;-75
2023/09/19 03:52:01;;;;;;;3.47;1.10;;;;;;;19.21;94.65;97656.59;4409662;32;20106;-75
2023/09/19 03:54:28;;;;;;;6.47;1.40;;;;;;;18.95;95.81;97656.16;4410199;32;20153;-75
2023/09/19 03:56:55;;;;;;;3.85;1.00;;;;;;;19.00;96.36;97662.66;4410004;32;20105;-75
2023/09/19 03:59:22;;;;;;;1.87;0.98;;;;;;;18.64;97.93;97669.13;4396021;32;20432;-75
2023/09/19 04:01:50;;;;;;;2.37;0.90;;;;;;;18.64;98.11;97671.75;4410046;32;20142;-75
2023/09/19 04:04:18;;;;;;;1.40;0.80;;;;;;;18.64;98.27;97660.44;4409929;32;20094;-75
2023/09/19 04:06:46;;;;;;;5.22;1.23;;;;;;;18.84;96.32;97653.59;4409784;32;20108;-75
2023/09/19 04:09:13;;;;;;;3.85;1.30;;;;;;;18.67;97.57;97662.81;4410045;32;20212;-75
2023/09/19 04:11:40;;;;;;;2.87;1.00;;;;;;;18.89;95.67;97656.66;4409566;32;20168;-75
2023/09/19 04:14:07;;;;;;;4.32;1.27;;;;;;;18.84;95.98;97672.72;4409807;32;20185;-75
2023/09/19 04:16:34;;;;;;;4.80;1.17;;;;;;;18.50;98.14;97665.00;4409807;32;20147;-75
2023/09/19 04:19:02;;;;;;;2.08;0.88;;;;;;;18.55;98.45;97669.00;4409630;32;20437;-75
2023/09/19 04:21:29;;;;;;;2.25;1.05;;;;;;;19.18;93.64;97683.00;4409549;32;20169;-75
2023/09/19 04:23:56;;;;;;;4.15;1.58;;;;;;;18.62;96.80;97681.47;4409913;32;20132;-75
2023/09/19 04:26:23;;;;;;;2.85;1.08;;;;;;;18.93;94.57;97684.22;4409462;32;20342;-75
2023/09/19 04:28:50;;;;;;;2.62;1.00;;;;;;;19.06;93.83;97677.84;4409781;32;20500;-75
2023/09/19 04:31:19;;;;;;;2.47;1.00;;;;;;;18.71;95.99;97680.72;4409674;32;20116;-75
2023/09/19 04:33:46;;;;;;;3.85;0.90;;;;;;;18.71;96.74;97685.94;4409388;32;20176;-75
2023/09/19 04:36:13;;;;;;;2.83;1.00;;;;;;;18.42;98.91;97679.62;4409558;32;20109;-75
2023/09/19 04:39:01;;;;;;;2.35;1.00;;;;;;;18.49;98.63;97688.59;4409617;32;20097;-75
2023/09/19 04:41:28;;;;;;;1.73;1.00;;;;;;;18.83;97.21;97691.97;4409270;32;20373;-75
2023/09/19 04:43:55;;;;;;;2.35;1.10;;;;;;;18.52;100.00;97693.59;4409564;32;20406;-75
2023/09/19 04:46:22;;;;;;;4.87;1.12;;;;;;;18.20;100.00;97704.84;4409695;32;20100;-75
2023/09/19 04:48:50;;;;;;;4.53;1.10;;;;;;;18.55;100.00;97698.56;4408010;32;20094;-75
2023/09/19 04:51:18;;;;;;;2.78;0.95;;;;;;;17.97;100.00;97698.00;4409459;32;20122;-75
2023/09/19 04:53:45;;;;;;;3.78;1.00;;;;;;;18.00;100.00;97689.91;4409321;32;20137;-75
2023/09/19 04:56:13;;;;;;;3.03;1.08;;;;;;;18.09;100.00;97693.59;4409261;32;20125;-74
2023/09/19 04:58:40;;;;;;;1.90;0.93;;;;;;;18.10;100.00;97701.28;4409444;32;20138;-75
2023/09/19 05:01:11;;;;;;;2.58;0.82;;;;;;;18.10;100.00;97703.06;4395340;32;20118;-75
2023/09/19 05:03:38;;;;;;;2.92;1.10;;;;;;;18.31;100.00;97713.59;4409423;32;20149;-75
2023/09/19 05:06:05;;;;;;;2.55;1.00;;;;;;;18.40;100.00;97721.53;4409194;32;20169;-75
2023/09/19 05:08:32;;;;;;;2.58;1.10;;;;;;;18.41;100.00;97738.03;4408895;32;20154;-75
2023/09/19 05:11:02;;;;;;;2.62;1.00;;;;;;;18.11;100.00;97749.94;4409266;32;20125;-76
2023/09/19 05:13:30;;;;;;;2.72;1.20;;;;;;;18.43;100.00;97742.19;4409110;32;20459;-76
2023/09/19 05:16:02;;;;;;;4.10;1.50;;;;;;;18.49;100.00;97736.47;4395169;32;20104;-76
2023/09/19 05:18:29;;;;;;;5.00;1.37;;;;;;;18.01;100.00;97742.94;4409132;32;20091;-76
2023/09/19 05:20:56;;;;;;;3.45;1.10;;;;;;;17.99;100.00;97742.25;4408777;32;20132;-75
2023/09/19 05:23:23;;;;;;;3.28;1.10;;;;;;;17.60;100.00;97742.53;4408798;32;20149;-75
2023/09/19 05:25:51;;;;;;;4.20;1.40;;;;;;;17.97;100.00;97744.13;4408919;32;20488;-75
2023/09/19 05:28:18;;;;;;;3.25;1.10;;;;;;;17.95;100.00;97751.25;4409163;32;20163;-75
2023/09/19 05:30:45;;;;;;;2.25;1.10;;;;;;;17.99;100.00;97756.12;4408512;32;20177;-75
2023/09/19 05:33:14;;;;;;;4.12;1.08;;;;;;;17.59;100.00;97737.44;4408937;32;20425;-75
2023/09/19 05:35:41;;;;;;;1.77;0.93;;;;;;;17.54;100.00;97742.16;4395079;32;20074;-75
2023/09/19 05:38:09;;;;;;;3.70;1.37;;;;;;;17.34;100.00;97751.50;4394859;32;20148;-75
2023/09/19 05:40:36;;;;;;;3.20;0.80;;;;;;;17.12;100.00;97759.22;4408812;32;20102;-75
2023/09/19 05:43:05;;;;;;;3.03;1.23;;;;;;;17.22;100.00;97747.19;4408516;32;20149;-75
2023/09/19 05:45:32;;;;;;;3.08;1.20;;;;;;;17.31;100.00;97754.31;4408622;32;20162;-76
2023/09/19 05:48:08;;;;;;;3.28;1.20;;;;;;;17.41;100.00;97770.13;4408762;32;20112;-76
2023/09/19 05:50:36;;;;;;;2.75;1.05;;;;;;;17.38;100.00;97767.75;4408210;32;20173;-77
2023/09/19 05:53:04;;;;;;;2.78;1.25;;;;;;;17.25;100.00;97775.66;4408688;32;20082;-76
2023/09/19 05:55:32;;;;;;;2.10;1.00;;;;;;;17.64;100.00;97770.03;4406834;32;20112;-78
2023/09/19 05:57:59;;;;;;;4.30;1.30;;;;;;;17.46;100.00;97773.22;4394158;32;20160;-78
2023/09/19 06:00:29;;;;;;;4.25;1.55;;;;;;;17.70;100.00;97778.41;4408829;32;20608;-78
2023/09/19 06:02:57;;;;;;;5.28;1.33;;;;;;;17.70;100.00;97767.97;4410462;32;20103;-78
2023/09/19 06:05:30;;;;;;;3.30;1.35;;;;;;;17.77;100.00;97783.03;4410207;32;20124;-78
2023/09/19 06:07:59;;;;;;;6.05;1.30;;;;;;;17.63;100.00;97772.75;4396706;32;20151;-78
2023/09/19 06:10:29;;;;;;;5.55;1.48;;;;;;;18.13;100.00;97786.38;4409690;32;20113;-77
2023/09/19 06:12:57;;;;;;;4.60;1.10;;;;;;;17.91;100.00;97785.41;4410086;32;20082;-77
2023/09/19 06:15:25;;;;;;;6.12;1.20;;;;;;;17.90;100.00;97788.97;4410224;32;20100;-77
2023/09/19 06:17:59;;;;;;;4.55;1.65;;;;;;;18.21;100.00;97799.66;4410449;32;20441;-78
2023/09/19 06:20:26;;;;;;;3.65;1.20;;;;;;;18.75;100.00;97806.75;4410451;32;20094;-78
2023/09/19 06:22:54;;;;;;;4.00;1.42;;;;;;;19.12;98.97;97809.03;4396618;32;20104;-77
2023/09/19 06:25:21;;;;;;;5.12;1.35;;;;;;;19.53;95.82;97813.47;4409991;32;20078;-77
2023/09/19 06:27:54;;;;;;;4.75;1.37;;;;;;;19.47;96.28;97814.00;4410364;32;20090;-77
2023/09/19 06:30:23;;;;;;;6.15;1.70;;;;;;;19.31;97.42;97817.03;4409978;32;20140;-80
2023/09/19 06:32:58;;;;;;;3.55;1.20;;;;;;;18.94;100.00;97808.75;4396536;32;20148;-79
2023/09/19 06:35:26;;;;;;;4.07;1.25;;;;;;;18.83;100.00;97811.38;4410290;32;20148;-82
2023/09/19 06:37:53;;;;;;;5.32;1.50;;;;;;;18.88;100.00;97810.06;4410302;32;20113;-81
2023/09/19 06:40:20;;;;;;;6.07;1.50;;;;;;;18.75;100.00;97812.81;4409872;32;20098;-78
2023/09/19 06:42:51;;;;;;;3.35;1.30;;;;;;;18.82;100.00;97815.78;4410344;32;20445;-81
2023/09/19 06:45:18;;;;;;;4.03;1.40;;;;;;;18.57;100.00;97816.84;4410088;32;20090;-82
2023/09/19 06:47:49;;;;;;;4.50;1.40;;;;;;;18.66;100.00;97820.56;4396150;32;20118;-78
2023/09/19 06:50:22;;;;;;;6.28;1.70;;;;;;;18.55;100.00;97815.31;4410301;32;20102;-80
2023/09/19 06:52:54;;;;;;;4.50;1.35;;;;;;;18.79;100.00;97826.47;4410395;32;20416;-81
2023/09/19 06:55:27;;;;;;;3.60;1.25;;;;;;;18.60;100.00;97827.06;4409849;32;20141;-79
2023/09/19 06:57:56;;;;;;;5.25;1.30;;;;;;;18.95;100.00;97831.31;4397086;32;20106;-79
2023/09/19 07:00:26;;;;;;;5.10;1.55;;;;;;;19.10;98.80;97844.94;4409642;32;20189;-81
2023/09/19 07:03:04;;;;;;;4.60;1.40;;;;;;;19.08;99.07;97847.66;4410296;32;20104;-79
2023/09/19 07:05:32;;;;;;;4.30;1.12;;;;;;;18.98;98.87;97850.19;4384016;32;20492;-79
2023/09/19 07:08:00;;;;;;;5.68;1.52;;;;;;;19.40;95.71;97855.53;4409886;32;20153;-81
2023/09/19 07:10:33;;;;;;;4.60;1.30;;;;;;;19.37;95.96;97863.62;4396228;32;20133;-80
2023/09/19 07:13:02;;;;;;;2.78;1.00;;;;;;;19.78;93.21;97862.03;4409579;32;20106;-80
2023/09/19 07:15:33;;;;;;;2.42;1.20;;;;;;;19.90;93.25;97877.56;4409619;32;20150;-80
2023/09/19 07:18:00;;;;;;;5.80;1.40;;;;;;;19.76;92.70;97890.13;4409990;32;20485;-79
2023/09/19 07:20:31;;;;;;;5.55;1.60;;;;;;;19.63;94.08;97895.53;4410106;32;20487;-79
2023/09/19 07:23:02;;;;;;;3.83;1.20;;;;;;;19.82;92.71;97902.72;4409756;32;20090;-80
2023/09/19 07:25:29;;;;;;;3.60;1.40;;;;;;;19.87;91.42;97911.84;4396800;32;20093;-79
2023/09/19 07:28:01;;;;;;;3.55;1.20;;;;;;;19.85;93.93;97926.03;4396436;32;20125;-80
2023/09/19 07:30:28;;;;;;;5.47;1.40;;;;;;;19.44;95.13;97929.34;4409802;32;20089;-79
2023/09/19 07:32:56;;;;;;;3.55;1.30;;;;;;;19.68;93.49;97945.75;4410092;32;20443;-79
2023/09/19 07:35:23;;;;;;;5.20;1.33;;;;;;;19.28;95.70;97948.91;4409489;32;20431;-78
2023/09/19 07:37:51;;;;;;;5.35;1.35;;;;;;;19.02;96.45;97945.72;4409987;32;20106;-77
2023/09/19 07:40:20;;;;;;;5.25;1.60;;;;;;;19.12;96.76;97942.37;4410037;32;20401;-78
2023/09/19 07:42:48;;;;;;;8.43;2.05;;;;;;;18.86;100.00;97937.44;4409636;32;20437;-78
2023/09/19 07:45:16;;;;;;;5.97;1.65;;;;;;;19.72;95.21;97936.69;4396108;32;20078;-77
2023/09/19 07:47:45;;;;;;;7.30;1.37;;;;;;;19.83;93.33;97951.50;4409895;32;20102;-78
2023/09/19 07:50:20;;;;;;;3.95;1.30;;;;;;;19.76;93.53;97963.41;4409547;32;20095;-78
2023/09/19 07:52:50;;;;;;;6.82;1.42;;;;;;;19.46;96.23;97958.84;4409999;32;20189;-79
2023/09/19 07:55:22;;;;;;;4.97;1.67;;;;;;;19.44;95.75;97969.44;4409772;32;20098;-79
2023/09/19 07:57:50;;;;;;;5.87;1.60;;;;;;;19.29;97.19;97981.97;4409446;32;20425;-79
2023/09/19 08:00:17;;;;;;;6.47;1.40;;;;;;;19.10;99.44;97984.34;4409811;32;20150;-79
2023/09/19 08:02:44;;;;;;;7.90;1.62;;;;;;;19.27;99.31;97991.72;4409784;32;20425;-79
2023/09/19 08:05:16;;;;;;;2.87;1.15;;;;;;;19.51;96.24;97980.25;4409405;32;20108;-79
2023/09/19 08:07:48;;;;;;;5.20;1.90;;;;;;;19.35;97.97;97971.03;4409737;32;20473;-79
2023/09/19 08:10:16;;;;;;;4.97;1.65;;;;;;;19.59;96.21;97956.94;4409495;32;20094;-78
2023/09/19 08:12:46;;;;;;;7.03;1.70;;;;;;;19.16;100.00;97942.03;4409581;32;20100;-78
2023/09/19 08:15:19;;;;;;;3.70;1.40;;;;;;;20.03;95.97;97931.53;4409584;32;20149;-79
2023/09/19 08:17:47;;;;;;;2.92;1.30;;;;;;;20.65;91.57;97928.91;4409200;32;20161;-79
2023/09/19 08:20:18;;;;;;;4.00;1.45;;;;;;;20.77;89.06;97935.69;4409397;32;20488;-79
2023/09/19 08:22:56;;;;;;;5.00;1.30;;;;;;;20.78;88.17;97939.16;4396124;32;20144;-79
2023/09/19 08:25:25;;;;;;;5.95;1.80;;;;;;;20.60;90.76;97952.03;4409294;32;20441;-79
2023/09/19 08:27:52;;;;;;;3.55;1.17;;;;;;;20.67;90.68;97950.56;4409746;32;20441;-78
2023/09/19 08:30:26;;;;;;;2.05;1.20;;;;;;;20.81;90.48;97954.59;4409616;32;20158;-78
2023/09/19 08:33:00;;;;;;;5.15;1.50;;;;;;;20.97;87.53;97964.63;4409158;32;20455;-78
2023/09/19 08:35:27;;;;;;;3.10;1.35;;;;;;;21.30;88.17;97961.72;4409304;32;20073;-78
2023/09/19 08:37:55;;;;;;;3.30;1.20;;;;;;;21.50;83.11;97962.59;4409489;32;20158;-78
2023/09/19 08:40:23;;;;;;;5.80;2.22;;;;;;;21.32;84.15;97956.31;4409079;32;20147;-78
2023/09/19 08:42:53;;;;;;;5.10;1.60;;;;;;;21.24;84.95;97959.59;4409484;32;20086;-78
2023/09/19 08:45:23;;;;;;;2.92;1.30;;;;;;;21.58;84.96;97956.63;4395644;32;20090;-78
2023/09/19 08:48:02;;;;;;;3.90;1.20;;;;;;;21.16;85.61;97959.44;4409604;32;20147;-78
2023/09/19 08:50:29;;;;;;;5.03;1.30;;;;;;;22.06;81.75;97958.44;4395984;32;20632;-78
2023/09/19 08:53:05;;;;;;;4.72;1.30;;;;;;;22.05;79.46;97951.53;4409095;32;20102;-79
2023/09/19 08:55:33;;;;;;;3.58;1.30;;;;;;;21.66;80.05;97962.03;4395572;32;20468;-78
2023/09/19 08:58:07;;;;;;;4.57;1.45;;;;;;;22.07;77.70;97954.88;4395583;32;20129;-78
2023/09/19 09:00:35;;;;;;;4.07;1.30;;;;;;;22.75;75.93;97961.62;4383128;32;20185;-79
2023/09/19 09:03:03;;;;;;;4.32;1.52;;;;;;;22.36;75.17;97968.00;4409324;32;20100;-79
2023/09/19 09:05:32;;;;;;;3.72;1.33;;;;;;;22.39;74.56;97971.16;4408959;32;20111;-79
2023/09/19 09:07:59;;;;;;;3.40;1.50;;;;;;;22.48;72.92;97959.78;4408807;32;20186;-79
2023/09/19 09:10:26;;;;;;;5.37;1.30;;;;;;;22.08;76.21;97959.16;4395414;32;20120;-79
2023/09/19 09:12:57;;;;;;;4.45;1.30;;;;;;;23.14;72.15;97955.41;4408986;32;20085;-79
2023/09/19 09:15:24;;;;;;;3.50;1.15;;;;;;;23.69;68.22;97963.28;4408578;32;20108;-80
2023/09/19 09:17:54;;;;;;;3.08;1.50;;;;;;;24.49;64.99;97964.97;4409040;32;20434;-79
2023/09/19 09:20:21;;;;;;;6.10;1.45;;;;;;;24.62;64.60;97965.37;4408789;32;20114;-79
2023/09/19 09:22:53;;;;;;;3.20;1.08;;;;;;;24.67;62.11;97972.81;4395088;32;20102;-79
2023/09/19 09:25:24;;;;;;;4.53;1.55;;;;;;;24.08;64.83;97969.91;4408775;32;20156;-78
2023/09/19 09:28:01;;;;;;;3.37;1.10;;;;;;;24.38;68.26;97968.69;4408494;32;20097;-77
2023/09/19 09:30:38;;;;;;;4.60;1.20;;;;;;;24.89;66.62;97968.84;4395060;32;20120;-78
2023/09/19 09:33:12;;;;;;;2.30;1.10;;;;;;;24.96;64.48;97968.03;4408935;32;20108;-79
2023/09/19 09:35:56;;;;;;;5.82;1.35;;;;;;;25.15;61.03;97971.44;4383647;32;20083;-79
2023/09/19 09:38:27;;;;;;;5.62;1.42;;;;;;;25.23;62.44;97969.66;4410762;32;20095;-79
2023/09/19 09:41:01;;;;;;;3.15;1.20;;;;;;;25.86;61.78;97961.25;4410820;32;20101;-79
2023/09/19 09:43:30;;;;;;;3.58;1.15;;;;;;;26.34;58.75;97953.47;4410445;32;20081;-78
2023/09/19 09:49:15;;;;;;;3.08;1.25;;;;;;;25.13;60.86;97971.59;4410489;32;20108;-79
2023/09/19 09:52:07;;;;;;;3.58;1.30;;;;;;;25.88;60.34;97982.22;4410751;32;20121;-79
2023/09/19 09:54:41;;;;;;;3.62;1.37;;;;;;;25.60;61.89;97995.69;4410306;32;20116;-79
2023/09/19 09:57:13;;;;;;;3.08;1.10;;;;;;;25.87;60.43;97988.50;4410281;32;20124;-78
2023/09/19 09:59:53;;;;;;;2.80;1.37;;;;;;;26.02;56.36;97988.69;4410685;32;20439;-79
2023/09/19 10:02:25;;;;;;;1.95;1.00;;;;;;;26.62;56.01;97991.00;4410549;32;20162;-79
2023/09/19 10:07:42;;;;;;;4.30;1.30;;;;;;;27.07;53.30;97991.22;4410666;32;20070;-79
2023/09/19 10:10:16;;;;;;;4.07;1.30;;;;;;;26.71;53.70;97988.16;4410394;32;20197;-79
2023/09/19 10:12:46;;;;;;;2.72;1.20;;;;;;;26.15;55.17;97995.13;4410632;32;20102;-79
2023/09/19 10:15:15;;;;;;;3.08;1.30;;;;;;;25.78;54.55;97994.75;4410399;32;20089;-79
2023/09/19 10:17:44;;;;;;;2.97;1.35;;;;;;;26.19;55.48;97996.47;4410300;32;20074;-78
2023/09/19 10:20:32;;;;;;;3.75;1.42;;;;;;;25.89;55.06;98005.84;4410596;32;20094;-78
2023/09/19 10:23:00;;;;;;;3.65;1.30;;;;;;;25.77;55.38;98001.03;4410381;32;20418;-79
2023/09/19 10:25:28;;;;;;;3.83;1.00;;;;;;;25.37;56.22;98015.75;4410100;32;20089;-79
2023/09/19 10:27:59;;;;;;;5.00;1.40;;;;;;;24.70;57.06;98005.00;4396866;32;20093;-79
2023/09/19 10:30:28;;;;;;;4.47;1.42;;;;;;;25.82;56.34;98004.00;4410363;32;20103;-79
2023/09/19 10:33:03;;;;;;;4.97;1.20;;;;;;;26.64;54.26;98010.19;4396599;32;20094;-79
2023/09/19 10:35:32;;;;;;;3.80;1.27;;;;;;;26.49;54.85;98005.56;4410380;32;20123;-79
2023/09/19 10:38:01;;;;;;;4.07;1.37;;;;;;;26.73;53.27;97998.59;4410088;32;20066;-79
2023/09/19 10:40:30;;;;;;;3.10;1.10;;;;;;;25.89;55.57;98003.19;4396545;32;20178;-79
2023/09/19 10:43:05;;;;;;;4.12;1.15;;;;;;;25.48;55.78;97989.03;4410474;32;20090;-78
2023/09/19 10:45:38;;;;;;;4.12;1.37;;;;;;;25.06;55.17;97999.59;4409295;32;20107;-79
2023/09/19 10:48:07;;;;;;;2.50;1.12;;;;;;;24.79;55.33;97992.69;4409920;32;20154;-79
2023/09/19 10:50:37;;;;;;;4.07;1.30;;;;;;;24.65;55.49;97999.34;4410291;32;20140;-79
2023/09/19 10:53:08;;;;;;;3.50;1.25;;;;;;;25.09;56.05;98010.69;4396321;32;20165;-79
2023/09/19 10:55:35;;;;;;;3.12;1.30;;;;;;;24.75;55.18;97992.16;4396807;32;20240;-80
2023/09/19 10:58:15;;;;;;;2.95;1.30;;;;;;;25.08;56.68;97995.81;4410293;32;20118;-80
2023/09/19 11:01:17;;;;;;;3.50;1.35;;;;;;;25.26;54.61;97994.91;4397659;32;20177;-79
2023/09/19 11:03:44;;;;;;;4.55;1.40;;;;;;;24.75;56.89;98004.53;4410464;32;20086;-80
2023/09/19 11:06:22;;;;;;;3.78;1.50;;;;;;;24.60;57.07;98003.44;4409857;32;20105;-79
2023/09/19 11:08:57;;;;;;;3.08;1.20;;;;;;;24.12;57.88;98007.31;4397744;32;20078;-79
2023/09/19 11:11:40;;;;;;;4.12;1.45;;;;;;;24.42;57.98;98004.31;4410064;32;20156;-79
2023/09/19 11:14:25;;;;;;;4.30;1.40;;;;;;;24.92;56.31;98008.91;4409819;32;20102;-79
2023/09/19 11:17:17;;;;;;;2.55;1.30;;;;;;;24.84;56.26;98002.75;4410339;32;20467;-79
2023/09/19 11:25:30;;;;;;;4.07;1.40;;;;;;;25.01;57.23;98009.78;4409989;32;20444;-80
2023/09/19 11:30:48;;;;;;;5.00;1.45;;;;;;;25.87;57.39;98001.72;4410215;32;20093;-80
2023/09/19 11:33:21;;;;;;;6.35;1.50;;;;;;;25.93;54.91;97993.94;4396572;32;20465;-79
2023/09/19 11:36:04;;;;;;;2.90;1.27;;;;;;;25.68;54.08;98006.28;4409702;32;20106;-80
2023/09/19 11:38:52;;;;;;;2.95;1.20;;;;;;;25.79;53.52;98012.28;4410133;32;20590;-80
2023/09/19 11:43:55;;;;;;;5.28;1.55;;;;;;;26.16;54.46;98009.19;4410126;32;20377;-80
2023/09/19 11:46:24;;;;;;;3.03;1.30;;;;;;;26.42;53.68;98009.03;4409976;32;20094;-79
2023/09/19 11:48:52;;;;;;;4.32;1.40;;;;;;;26.16;54.29;98002.09;4409788;32;20128;-79
2023/09/19 11:51:26;;;;;;;2.72;1.42;;;;;;;26.06;54.14;98009.34;4409925;32;20137;-79
2023/09/19 11:53:56;;;;;;;4.40;1.33;;;;;;;25.99;54.41;97994.28;4410069;32;20093;-79
2023/09/19 11:56:25;;;;;;;3.62;1.12;;;;;;;25.75;55.50;97985.34;4409785;32;20098;-79
2023/09/19 11:58:54;;;;;;;4.70;1.33;;;;;;;25.75;54.89;97989.81;4409391;32;20102;-79
2023/09/19 12:01:33;;;;;;;2.92;1.55;;;;;;;25.35;55.46;97994.78;4409910;32;20139;-79